createdAt,value
2022-10-25T00:01:41.853Z,1.55
2022-10-25T00:04:08.729Z,2.05
2022-10-25T00:06:35.321Z,1.60
2022-10-25T00:09:01.838Z,1.73
2022-10-25T00:11:30.338Z,1.95
2022-10-25T00:14:00.188Z,2.08
2022-10-25T00:16:30.410Z,2.10
2022-10-25T00:18:57.229Z,2.00
2022-10-25T00:21:24.080Z,2.45
2022-10-25T00:23:52.073Z,1.80
2022-10-25T00:26:19.168Z,1.90
2022-10-25T00:28:45.891Z,1.83
2022-10-25T00:31:14.885Z,1.88
2022-10-25T00:33:42.835Z,1.70
2022-10-25T00:36:12.598Z,1.92
2022-10-25T00:38:39.573Z,1.85
2022-10-25T00:41:06.920Z,1.90
2022-10-25T00:43:42.825Z,2.55
2022-10-25T00:46:18.269Z,1.67
2022-10-25T00:49:11.736Z,2.08
2022-10-25T00:51:48.845Z,2.00
2022-10-25T00:54:20.302Z,1.70
2022-10-25T00:56:50.353Z,2.35
2022-10-25T00:59:21.108Z,1.67
2022-10-25T01:01:47.960Z,1.88
2022-10-25T01:04:17.255Z,1.90
2022-10-25T01:06:48.921Z,2.00
2022-10-25T01:09:21.467Z,1.20
2022-10-25T01:11:47.989Z,2.10
2022-10-25T01:14:16.894Z,2.10
2022-10-25T01:16:56.521Z,1.65
2022-10-25T01:19:47.937Z,1.90
2022-10-25T01:22:30.377Z,1.50
2022-10-25T01:25:15.972Z,1.83
2022-10-25T01:30:58.614Z,1.73
2022-10-25T01:33:46.445Z,1.67
2022-10-25T01:36:35.643Z,1.70
2022-10-25T01:39:12.128Z,1.63
2022-10-25T01:41:49.718Z,2.03
2022-10-25T01:44:28.252Z,2.00
2022-10-25T01:47:01.907Z,1.80
2022-10-25T01:49:40.400Z,1.40
2022-10-25T01:52:07.068Z,2.28
2022-10-25T01:54:33.596Z,1.70
2022-10-25T01:57:31.082Z,2.00
2022-10-25T02:00:33.274Z,2.25
2022-10-25T02:03:09.944Z,2.00
2022-10-25T02:06:04.349Z,2.40
2022-10-25T02:08:41.444Z,1.58
2022-10-25T02:11:26.052Z,1.80
2022-10-25T02:13:56.358Z,1.77
2022-10-25T02:16:28.183Z,2.25
2022-10-25T02:19:00.686Z,1.80
2022-10-25T02:21:30.798Z,1.90
2022-10-25T02:23:59.783Z,2.00
2022-10-25T02:26:27.432Z,2.47
2022-10-25T02:28:54.792Z,2.03
2022-10-25T02:31:23.261Z,2.25
2022-10-25T02:33:50.285Z,1.92
2022-10-25T02:36:22.587Z,2.20
2022-10-25T02:38:51.138Z,1.92
2022-10-25T02:41:19.321Z,1.80
2022-10-25T02:43:45.821Z,1.90
2022-10-25T02:46:15.377Z,2.08
2022-10-25T02:51:09.556Z,1.70
2022-10-25T02:53:36.545Z,2.08
2022-10-25T02:56:14.991Z,1.55
2022-10-25T02:58:45.151Z,1.75
2022-10-25T03:01:12.752Z,2.85
2022-10-25T03:03:40.052Z,1.70
2022-10-25T03:06:07.962Z,1.85
2022-10-25T03:08:35.095Z,1.63
2022-10-25T03:11:01.770Z,1.83
2022-10-25T03:13:28.360Z,2.10
2022-10-25T03:15:54.831Z,1.55
2022-10-25T03:18:22.280Z,2.00
2022-10-25T03:20:49.356Z,1.90
2022-10-25T03:23:16.579Z,2.53
2022-10-25T03:25:43.277Z,2.08
2022-10-25T03:28:09.850Z,1.70
2022-10-25T03:30:36.428Z,1.52
2022-10-25T03:33:02.997Z,1.85
2022-10-25T03:35:29.664Z,2.38
2022-10-25T03:37:56.179Z,2.13
2022-10-25T03:40:23.602Z,1.70
2022-10-25T03:42:50.100Z,2.08
2022-10-25T03:45:17.253Z,2.58
2022-10-25T03:47:44.446Z,2.00
2022-10-25T03:50:11.261Z,2.67
2022-10-25T03:52:38.129Z,2.08
2022-10-25T03:55:05.666Z,1.70
2022-10-25T03:57:32.334Z,1.85
2022-10-25T03:59:59.665Z,2.03
2022-10-25T04:02:27.211Z,1.85
2022-10-25T04:04:53.918Z,1.92
2022-10-25T04:07:20.547Z,1.98
2022-10-25T04:09:47.020Z,2.10
2022-10-25T04:12:13.778Z,2.72
2022-10-25T04:14:40.250Z,1.70
2022-10-25T04:17:06.709Z,2.38
2022-10-25T04:19:33.183Z,2.90
2022-10-25T04:22:02.090Z,2.20
2022-10-25T04:24:29.309Z,2.72
2022-10-25T04:26:55.856Z,2.33
2022-10-25T04:29:22.705Z,2.60
2022-10-25T04:31:49.313Z,2.10
2022-10-25T04:34:15.882Z,2.13
2022-10-25T04:36:42.705Z,2.38
2022-10-25T04:39:09.254Z,2.05
2022-10-25T04:41:35.773Z,2.20
2022-10-25T04:44:02.291Z,2.38
2022-10-25T04:46:28.765Z,2.60
2022-10-25T04:48:55.281Z,2.10
2022-10-25T04:51:21.838Z,1.75
2022-10-25T04:53:48.347Z,2.72
2022-10-25T04:56:15.061Z,2.60
2022-10-25T04:58:41.624Z,2.60
2022-10-25T05:01:11.290Z,2.72
2022-10-25T05:03:38.572Z,3.60
2022-10-25T05:06:06.508Z,2.92
2022-10-25T05:08:33.167Z,3.30
2022-10-25T05:11:00.083Z,3.00
2022-10-25T05:13:27.231Z,3.55
2022-10-25T05:15:57.811Z,5.60
2022-10-25T05:18:24.834Z,8.95
2022-10-25T05:20:55.771Z,11.52
2022-10-25T05:23:22.904Z,5.28
2022-10-25T05:25:59.684Z,4.65
2022-10-25T05:28:26.601Z,5.60
2022-10-25T05:30:53.127Z,7.95
2022-10-25T05:33:19.661Z,18.77
2022-10-25T05:35:46.298Z,27.77
2022-10-25T05:38:12.847Z,25.25
2022-10-25T05:40:39.644Z,14.82
2022-10-25T05:43:06.287Z,7.93
2022-10-25T05:45:32.801Z,6.90
2022-10-25T05:47:59.300Z,4.60
2022-10-25T05:50:25.794Z,3.75
2022-10-25T05:52:53.392Z,3.25
2022-10-25T05:55:19.929Z,3.58
2022-10-25T05:57:52.325Z,3.10
2022-10-25T06:00:19.238Z,3.83
2022-10-25T06:02:46.945Z,3.20
2022-10-25T06:05:13.702Z,3.10
2022-10-25T06:07:40.218Z,3.25
2022-10-25T06:10:10.450Z,3.35
2022-10-25T06:12:37.493Z,3.75
2022-10-25T06:15:04.407Z,3.53
2022-10-25T06:17:31.505Z,3.10
2022-10-25T06:19:58.018Z,3.15
2022-10-25T06:22:24.610Z,3.78
2022-10-25T06:24:51.145Z,3.13
2022-10-25T06:27:17.671Z,3.47
2022-10-25T06:29:44.161Z,3.33
2022-10-25T06:32:10.771Z,3.42
2022-10-25T06:34:37.419Z,3.90
2022-10-25T06:37:05.068Z,3.78
2022-10-25T06:39:31.737Z,3.92
2022-10-25T06:41:58.289Z,4.38
2022-10-25T06:44:24.777Z,5.05
2022-10-25T06:47:16.409Z,4.13
2022-10-25T06:49:37.853Z,4.18
2022-10-25T06:52:04.494Z,4.28
2022-10-25T06:54:31.005Z,4.32
2022-10-25T06:56:57.967Z,3.53
2022-10-25T06:59:24.704Z,4.55
2022-10-25T07:01:51.362Z,4.32
2022-10-25T07:04:17.941Z,4.30
2022-10-25T07:06:44.418Z,5.22
2022-10-25T07:09:12.414Z,4.97
2022-10-25T07:11:39.477Z,4.35
2022-10-25T07:14:06.079Z,4.72
2022-10-25T07:16:32.702Z,4.45
2022-10-25T07:18:59.929Z,4.20
2022-10-25T07:21:27.669Z,3.75
2022-10-25T07:23:54.224Z,3.35
2022-10-25T07:26:26.770Z,4.50
2022-10-25T07:28:55.154Z,4.28
2022-10-25T07:31:24.520Z,4.10
2022-10-25T07:33:53.269Z,3.40
2022-10-25T07:36:20.345Z,3.67
2022-10-25T07:38:47.036Z,3.60
2022-10-25T07:41:13.624Z,3.53
2022-10-25T07:43:40.305Z,5.30
2022-10-25T07:46:07.564Z,3.97
2022-10-25T07:48:34.720Z,3.88
2022-10-25T07:51:06.148Z,3.72
2022-10-25T07:53:32.805Z,3.72
2022-10-25T07:55:59.388Z,3.97
2022-10-25T07:58:25.900Z,3.53
2022-10-25T08:00:52.417Z,3.63
2022-10-25T08:03:18.970Z,3.15
2022-10-25T08:05:47.043Z,3.15
2022-10-25T08:08:14.822Z,3.13
2022-10-25T08:10:43.367Z,3.03
2022-10-25T08:13:10.290Z,3.97
2022-10-25T08:15:36.872Z,2.70
2022-10-25T08:18:04.334Z,3.03
2022-10-25T08:20:49.658Z,3.42
2022-10-25T08:23:17.654Z,3.45
2022-10-25T08:25:44.527Z,3.65
2022-10-25T08:28:11.269Z,2.65
2022-10-25T08:30:38.147Z,3.75
2022-10-25T08:33:06.486Z,2.85
2022-10-25T08:35:35.825Z,3.38
2022-10-25T08:38:04.832Z,2.90
2022-10-25T08:40:48.901Z,3.08
2022-10-25T08:43:20.409Z,2.90
2022-10-25T08:46:09.714Z,2.83
2022-10-25T08:51:21.307Z,1.92
2022-10-25T08:53:52.065Z,2.00
2022-10-25T08:56:19.263Z,1.90
2022-10-25T08:58:53.851Z,1.48
2022-10-25T09:01:52.712Z,1.83
2022-10-25T09:04:20.389Z,1.70
2022-10-25T09:07:08.195Z,1.98
2022-10-25T09:10:02.965Z,1.50
2022-10-25T09:12:39.557Z,2.10
2022-10-25T09:15:36.810Z,1.75
2022-10-25T09:18:22.671Z,2.00
2022-10-25T09:20:50.956Z,1.80
2022-10-25T09:23:26.307Z,2.05
2022-10-25T09:26:26.564Z,2.00
2022-10-25T09:29:12.756Z,1.70
2022-10-25T09:31:44.388Z,2.58
2022-10-25T09:34:11.557Z,1.85
2022-10-25T09:36:46.296Z,1.77
2022-10-25T09:39:38.377Z,1.50
2022-10-25T09:42:07.474Z,2.42
2022-10-25T09:44:50.251Z,1.98
2022-10-25T09:47:35.182Z,1.80
2022-10-25T09:50:04.889Z,1.40
2022-10-25T09:52:45.195Z,1.50
2022-10-25T09:55:11.653Z,1.48
2022-10-25T09:57:38.309Z,1.40
2022-10-25T10:00:10.047Z,1.73
2022-10-25T10:02:37.769Z,1.55
2022-10-25T10:05:05.281Z,1.50
2022-10-25T10:07:37.300Z,1.27
2022-10-25T10:10:09.453Z,1.45
2022-10-25T10:13:15.853Z,1.48
2022-10-25T10:15:52.231Z,1.40
2022-10-25T10:18:28.987Z,2.15
2022-10-25T10:21:14.502Z,1.42
2022-10-25T10:23:43.992Z,1.65
2022-10-25T10:26:43.600Z,2.08
2022-10-25T10:31:59.469Z,1.58
2022-10-25T10:34:26.382Z,2.58
2022-10-25T10:37:05.123Z,1.55
2022-10-25T10:39:34.022Z,1.83
2022-10-25T10:45:17.331Z,2.22
2022-10-25T10:47:48.347Z,1.48
2022-10-25T10:50:26.998Z,1.63
2022-10-25T10:52:59.760Z,1.73
2022-10-25T10:55:54.021Z,1.58
2022-10-25T10:58:27.474Z,1.80
2022-10-25T11:01:07.855Z,1.45
2022-10-25T11:03:45.197Z,1.60
2022-10-25T11:06:36.085Z,1.70
2022-10-25T11:09:19.284Z,1.52
2022-10-25T11:12:05.858Z,1.42
2022-10-25T11:14:32.584Z,1.13
2022-10-25T11:17:17.709Z,1.08
2022-10-25T11:19:55.889Z,1.45
2022-10-25T11:25:58.358Z,1.15
2022-10-25T11:28:50.528Z,1.20
2022-10-25T11:31:32.381Z,1.08
2022-10-25T11:34:35.690Z,1.40
2022-10-25T11:37:14.312Z,1.65
2022-10-25T11:40:02.582Z,1.40
2022-10-25T11:42:36.003Z,1.30
2022-10-25T11:45:29.918Z,1.00
2022-10-25T11:48:15.725Z,1.67
2022-10-25T11:51:10.387Z,1.27
2022-10-25T11:53:55.469Z,1.50
2022-10-25T11:56:59.609Z,1.23
2022-10-25T11:59:38.312Z,1.85
2022-10-25T12:02:25.937Z,1.20
2022-10-25T12:05:22.086Z,1.30
2022-10-25T12:08:18.374Z,1.48
2022-10-25T12:11:01.790Z,1.08
2022-10-25T12:13:38.342Z,1.15
2022-10-25T12:16:14.205Z,0.77
2022-10-25T12:18:49.427Z,0.98
2022-10-25T12:21:22.455Z,1.00
2022-10-25T12:23:51.671Z,1.10
2022-10-25T12:26:35.326Z,1.13
2022-10-25T12:29:05.386Z,0.70
2022-10-25T12:31:38.179Z,1.20
2022-10-25T12:34:14.237Z,1.67
2022-10-25T12:36:53.191Z,1.20
2022-10-25T12:39:42.397Z,1.38
2022-10-25T12:42:36.426Z,1.63
2022-10-25T12:45:24.870Z,1.40
2022-10-25T12:48:40.348Z,1.20
2022-10-25T12:51:28.795Z,1.00
2022-10-25T12:54:26.176Z,1.13
2022-10-25T12:56:52.671Z,1.25
2022-10-25T12:59:36.199Z,1.10
2022-10-25T13:02:02.596Z,1.33
2022-10-25T13:04:38.990Z,1.38
2022-10-25T13:07:09.837Z,1.48
2022-10-25T13:09:38.951Z,1.27
2022-10-25T13:12:30.564Z,1.30
2022-10-25T13:14:59.045Z,1.40
2022-10-25T13:17:25.533Z,0.90
2022-10-25T13:22:45.350Z,1.30
2022-10-25T13:25:49.790Z,0.90
2022-10-25T13:28:17.289Z,1.10
2022-10-25T13:30:46.567Z,1.23
2022-10-25T13:33:19.296Z,1.17
2022-10-25T13:35:48.439Z,1.30
2022-10-25T13:38:32.443Z,1.00
2022-10-25T13:41:04.537Z,1.15
2022-10-25T13:43:32.859Z,1.15
2022-10-25T13:45:59.483Z,1.10
2022-10-25T13:48:30.398Z,1.20
2022-10-25T13:51:16.810Z,1.67
2022-10-25T13:53:50.018Z,1.10
2022-10-25T13:56:22.402Z,1.15
2022-10-25T13:58:57.682Z,1.80
2022-10-25T14:01:26.601Z,1.58
2022-10-25T14:04:02.551Z,1.20
2022-10-25T14:06:32.943Z,1.10
2022-10-25T14:09:19.015Z,1.10
2022-10-25T14:12:14.608Z,0.98
2022-10-25T14:14:48.253Z,1.25
2022-10-25T14:17:44.553Z,1.17
2022-10-25T14:20:36.023Z,1.15
2022-10-25T14:23:12.988Z,1.20
2022-10-25T14:25:42.579Z,1.00
2022-10-25T14:30:53.532Z,1.40
2022-10-25T14:33:29.102Z,1.00
2022-10-25T14:36:30.808Z,1.10
2022-10-25T14:39:15.938Z,1.42
2022-10-25T14:41:53.060Z,0.85
2022-10-25T14:44:32.563Z,1.25
2022-10-25T14:49:30.566Z,1.20
2022-10-25T14:52:03.159Z,1.15
2022-10-25T14:54:32.562Z,1.20
2022-10-25T14:57:02.414Z,0.90
2022-10-25T14:59:46.211Z,2.15
2022-10-25T15:02:32.720Z,1.10
2022-10-25T15:05:01.474Z,1.30
2022-10-25T15:07:35.521Z,1.27
2022-10-25T15:12:35.592Z,1.30
2022-10-25T15:15:44.000Z,1.30
2022-10-25T15:18:34.968Z,1.35
2022-10-25T15:21:03.845Z,1.50
2022-10-25T15:23:31.036Z,1.40
2022-10-25T15:25:57.704Z,1.85
2022-10-25T15:28:24.358Z,1.60
2022-10-25T15:30:53.141Z,1.23
2022-10-25T15:33:23.811Z,1.40
2022-10-25T15:36:03.853Z,1.35
2022-10-25T15:38:54.383Z,1.88
2022-10-25T15:41:24.570Z,1.45
2022-10-25T15:43:52.176Z,1.63
2022-10-25T15:46:33.163Z,1.10
2022-10-25T15:49:03.370Z,1.70
2022-10-25T15:51:40.152Z,1.42
2022-10-25T15:54:15.164Z,1.60
2022-10-25T15:56:42.461Z,1.75
2022-10-25T15:59:09.526Z,1.55
2022-10-25T16:01:37.755Z,1.90
2022-10-25T16:04:04.468Z,1.85
2022-10-25T16:06:31.106Z,2.72
2022-10-25T16:08:57.671Z,2.28
2022-10-25T16:11:24.436Z,2.30
2022-10-25T16:13:53.406Z,2.28
2022-10-25T16:16:39.928Z,2.08
2022-10-25T16:19:14.073Z,2.42
2022-10-25T16:21:40.982Z,1.92
2022-10-25T16:24:07.675Z,2.75
2022-10-25T16:26:36.332Z,3.05
2022-10-25T16:29:04.528Z,2.57
2022-10-25T16:31:31.286Z,2.25
2022-10-25T16:33:59.019Z,2.65
2022-10-25T16:36:30.048Z,2.80
2022-10-25T16:38:57.053Z,3.30
2022-10-25T16:41:26.599Z,2.92
2022-10-25T16:46:19.897Z,3.05
2022-10-25T16:48:46.588Z,2.88
2022-10-25T16:51:14.480Z,2.78
2022-10-25T16:53:41.651Z,2.78
2022-10-25T16:56:13.141Z,3.50
2022-10-25T16:58:43.470Z,3.08
2022-10-25T17:01:29.201Z,2.88
2022-10-25T17:03:59.635Z,2.85
2022-10-25T17:06:40.865Z,3.38
2022-10-25T17:12:29.871Z,3.25
2022-10-25T17:14:57.778Z,3.38
2022-10-25T17:17:24.532Z,3.50
2022-10-25T17:19:53.996Z,3.55
2022-10-25T17:24:48.546Z,3.10
2022-10-25T17:27:17.649Z,4.00
2022-10-25T17:29:46.571Z,3.55
2022-10-25T17:32:16.979Z,3.85
2022-10-25T17:34:44.180Z,4.03
2022-10-25T17:37:18.350Z,3.72
2022-10-25T17:39:48.187Z,3.90
2022-10-25T17:42:16.022Z,4.07
2022-10-25T17:44:54.806Z,4.10
2022-10-25T17:47:21.677Z,3.90
2022-10-25T17:49:52.064Z,3.45
2022-10-25T17:52:18.716Z,4.00
2022-10-25T17:54:45.386Z,4.43
2022-10-25T17:57:15.282Z,4.18
2022-10-25T17:59:42.957Z,4.05
2022-10-25T18:02:12.887Z,4.38
2022-10-25T18:04:53.775Z,4.97
2022-10-25T18:07:38.813Z,5.28
2022-10-25T18:10:05.790Z,7.20
2022-10-25T18:12:32.363Z,6.15
2022-10-25T18:14:59.508Z,6.80
2022-10-25T18:20:38.186Z,6.72
2022-10-25T18:23:07.005Z,5.93
2022-10-25T18:25:34.585Z,4.57
2022-10-25T18:28:01.401Z,4.10
2022-10-25T18:30:28.091Z,4.15
2022-10-25T18:32:54.803Z,4.57
2022-10-25T18:35:21.378Z,3.47
2022-10-25T18:37:48.632Z,3.70
2022-10-25T18:40:15.728Z,5.20
2022-10-25T18:42:44.438Z,4.90
2022-10-25T18:45:11.333Z,4.83
2022-10-25T18:47:45.896Z,3.88
2022-10-25T18:50:22.286Z,4.07
2022-10-25T18:52:50.025Z,3.60
2022-10-25T18:57:45.151Z,4.28
2022-10-25T19:00:12.584Z,4.10
2022-10-25T19:02:39.305Z,3.33
2022-10-25T19:07:37.675Z,4.45
2022-10-25T19:10:04.635Z,3.72
2022-10-25T19:12:31.180Z,3.47
2022-10-25T19:14:57.653Z,3.05
2022-10-25T19:17:24.134Z,3.03
2022-10-25T19:19:50.551Z,2.80
2022-10-25T19:22:16.989Z,3.20
2022-10-25T19:24:43.447Z,3.72
2022-10-25T19:27:09.911Z,3.20
2022-10-25T19:29:41.730Z,3.42
2022-10-25T19:32:08.473Z,3.97
2022-10-25T19:34:34.917Z,3.75
2022-10-25T19:37:07.787Z,4.55
2022-10-25T19:39:35.799Z,3.60
2022-10-25T19:42:02.291Z,3.15
2022-10-25T19:44:28.818Z,3.33
2022-10-25T19:46:55.391Z,3.17
2022-10-25T19:49:24.667Z,3.03
2022-10-25T19:51:51.115Z,2.70
2022-10-25T19:54:19.820Z,2.65
2022-10-25T19:56:46.737Z,3.17
2022-10-25T19:59:13.424Z,3.17
2022-10-25T20:01:47.358Z,3.10
2022-10-25T20:04:14.203Z,3.60
2022-10-25T20:06:41.262Z,3.28
2022-10-25T20:09:09.778Z,3.35
2022-10-25T20:11:36.274Z,3.78
2022-10-25T20:14:02.869Z,4.70
2022-10-25T20:16:29.998Z,3.88
2022-10-25T20:18:58.704Z,4.43
2022-10-25T20:21:30.861Z,4.43
2022-10-25T20:24:37.003Z,4.50
2022-10-25T20:27:03.638Z,3.60
2022-10-25T20:29:30.182Z,3.72
2022-10-25T20:31:56.818Z,3.38
2022-10-25T20:34:23.432Z,3.70
2022-10-25T20:36:50.044Z,3.88
2022-10-25T20:39:17.133Z,4.28
2022-10-25T20:41:43.960Z,3.30
2022-10-25T20:44:10.551Z,3.40
2022-10-25T20:46:37.800Z,3.55
2022-10-25T20:49:07.242Z,3.65
2022-10-25T20:51:34.684Z,3.45
2022-10-25T20:54:01.291Z,4.22
2022-10-25T20:56:30.100Z,4.13
2022-10-25T20:58:56.551Z,3.65
2022-10-25T21:01:23.128Z,3.88
2022-10-25T21:03:53.967Z,4.10
2022-10-25T21:06:20.447Z,4.10
2022-10-25T21:08:49.150Z,4.32
2022-10-25T21:11:18.631Z,5.13
2022-10-25T21:16:15.875Z,4.50
2022-10-25T21:18:43.480Z,4.00
2022-10-25T21:21:17.733Z,4.07
2022-10-25T21:23:45.560Z,3.83
2022-10-25T21:26:12.128Z,4.18
2022-10-25T21:28:41.089Z,3.80
2022-10-25T21:31:10.387Z,3.90
2022-10-25T21:33:37.541Z,3.80
2022-10-25T21:36:06.624Z,3.47
2022-10-25T21:38:33.219Z,3.58
2022-10-25T21:41:36.502Z,3.60
2022-10-25T21:44:03.041Z,3.38
2022-10-25T21:46:29.570Z,3.47
2022-10-25T21:48:56.167Z,3.63
2022-10-25T21:51:26.601Z,3.63
2022-10-25T21:53:54.418Z,3.83
2022-10-25T21:56:30.583Z,3.35
2022-10-25T21:58:59.029Z,4.00
2022-10-25T22:01:28.643Z,3.58
2022-10-25T22:03:55.199Z,3.25
2022-10-25T22:06:23.694Z,3.45
2022-10-25T22:08:53.687Z,3.60
2022-10-25T22:11:22.813Z,3.40
2022-10-25T22:13:54.467Z,3.10
2022-10-25T22:16:21.251Z,2.70
2022-10-25T22:18:50.503Z,4.03
2022-10-25T22:21:17.027Z,3.67
2022-10-25T22:23:43.689Z,3.33
2022-10-25T22:26:12.319Z,4.07
2022-10-25T22:28:41.047Z,3.43
2022-10-25T22:31:13.490Z,2.75
2022-10-25T22:33:40.884Z,2.70
2022-10-25T22:36:08.846Z,3.42
2022-10-25T22:38:35.678Z,2.53
2022-10-25T22:41:05.704Z,3.10
2022-10-25T22:43:34.783Z,3.28
2022-10-25T22:46:03.179Z,3.03
2022-10-25T22:48:37.817Z,2.20
2022-10-25T22:51:07.776Z,2.67
2022-10-25T22:53:35.599Z,2.83
2022-10-25T22:56:11.745Z,2.70
2022-10-25T22:58:39.709Z,3.08
2022-10-25T23:01:09.378Z,2.33
2022-10-25T23:03:38.413Z,3.03
2022-10-25T23:06:06.928Z,2.83
2022-10-25T23:08:34.017Z,2.70
2022-10-25T23:11:02.821Z,2.55
2022-10-25T23:13:38.038Z,2.90
2022-10-25T23:16:07.154Z,2.88
2022-10-25T23:18:34.334Z,2.85
2022-10-25T23:21:02.497Z,2.25
2022-10-25T23:23:44.410Z,2.53
2022-10-25T23:26:17.270Z,2.63
2022-10-25T23:28:43.848Z,2.38
2022-10-25T23:31:11.803Z,2.40
2022-10-25T23:33:39.380Z,2.40
2022-10-25T23:36:16.712Z,2.25
2022-10-25T23:38:49.432Z,2.00
2022-10-25T23:41:17.426Z,2.33
2022-10-25T23:43:43.914Z,2.05
2022-10-25T23:46:15.314Z,2.50
2022-10-25T23:48:41.891Z,2.30
2022-10-25T23:51:10.935Z,2.28
2022-10-25T23:53:37.543Z,2.15
2022-10-25T23:56:05.785Z,2.08
2022-10-25T23:58:34.571Z,1.70
